sensor_id;sensor_type;location;lat;lon;timestamp;P1;durP1;ratioP1;P2;durP2;ratioP2
62030;SDS011;62035;52.094;5.112;2022-07-23T00:02:10;3.72;;;1.80;;
62030;SDS011;62035;52.094;5.112;2022-07-23T00:04:38;4.97;;;1.80;;
62030;SDS011;62035;52.094;5.112;2022-07-23T00:07:05;3.83;;;1.58;;
62030;SDS011;62035;52.094;5.112;2022-07-23T00:09:33;6.88;;;2.22;;
62030;SDS011;62035;52.094;5.112;2022-07-23T00:12:00;7.72;;;2.20;;
62030;SDS011;62035;52.094;5.112;2022-07-23T00:14:28;4.05;;;1.85;;
62030;SDS011;62035;52.094;5.112;2022-07-23T00:16:57;4.47;;;2.00;;
62030;SDS011;62035;52.094;5.112;2022-07-23T00:19:24;7.45;;;1.70;;
62030;SDS011;62035;52.094;5.112;2022-07-23T00:21:52;3.90;;;2.10;;
62030;SDS011;62035;52.094;5.112;2022-07-23T00:24:20;4.05;;;1.52;;
62030;SDS011;62035;52.094;5.112;2022-07-23T00:26:47;4.82;;;1.70;;
62030;SDS011;62035;52.094;5.112;2022-07-23T00:29:15;6.93;;;1.95;;
62030;SDS011;62035;52.094;5.112;2022-07-23T00:31:42;5.53;;;2.08;;
62030;SDS011;62035;52.094;5.112;2022-07-23T00:34:12;4.47;;;2.10;;
62030;SDS011;62035;52.094;5.112;2022-07-23T00:36:39;4.50;;;2.00;;
62030;SDS011;62035;52.094;5.112;2022-07-23T00:39:07;4.50;;;1.92;;
62030;SDS011;62035;52.094;5.112;2022-07-23T00:41:34;3.03;;;2.00;;
62030;SDS011;62035;52.094;5.112;2022-07-23T00:44:18;5.65;;;1.95;;
62030;SDS011;62035;52.094;5.112;2022-07-23T00:46:49;4.95;;;2.60;;
62030;SDS011;62035;52.094;5.112;2022-07-23T00:49:21;5.47;;;2.20;;
62030;SDS011;62035;52.094;5.112;2022-07-23T00:51:50;7.78;;;3.50;;
62030;SDS011;62035;52.094;5.112;2022-07-23T00:54:19;3.45;;;1.92;;
62030;SDS011;62035;52.094;5.112;2022-07-23T00:56:49;10.48;;;3.17;;
62030;SDS011;62035;52.094;5.112;2022-07-23T00:59:17;4.90;;;2.17;;
62030;SDS011;62035;52.094;5.112;2022-07-23T01:01:45;3.70;;;2.20;;
62030;SDS011;62035;52.094;5.112;2022-07-23T01:04:14;6.97;;;3.08;;
62030;SDS011;62035;52.094;5.112;2022-07-23T01:06:44;4.05;;;2.25;;
62030;SDS011;62035;52.094;5.112;2022-07-23T01:09:12;8.48;;;2.72;;
62030;SDS011;62035;52.094;5.112;2022-07-23T01:11:41;7.63;;;2.90;;
62030;SDS011;62035;52.094;5.112;2022-07-23T01:14:10;6.15;;;2.30;;
62030;SDS011;62035;52.094;5.112;2022-07-23T01:16:40;5.90;;;2.42;;
62030;SDS011;62035;52.094;5.112;2022-07-23T01:19:09;3.53;;;2.28;;
62030;SDS011;62035;52.094;5.112;2022-07-23T01:21:39;7.45;;;2.72;;
62030;SDS011;62035;52.094;5.112;2022-07-23T01:24:15;3.83;;;2.17;;
62030;SDS011;62035;52.094;5.112;2022-07-23T01:26:45;5.45;;;2.25;;
62030;SDS011;62035;52.094;5.112;2022-07-23T01:29:14;5.40;;;2.75;;
62030;SDS011;62035;52.094;5.112;2022-07-23T01:31:42;5.07;;;2.30;;
62030;SDS011;62035;52.094;5.112;2022-07-23T01:34:10;5.35;;;2.40;;
62030;SDS011;62035;52.094;5.112;2022-07-23T01:36:38;6.05;;;2.47;;
62030;SDS011;62035;52.094;5.112;2022-07-23T01:39:06;6.05;;;2.58;;
62030;SDS011;62035;52.094;5.112;2022-07-23T01:41:36;4.88;;;2.50;;
62030;SDS011;62035;52.094;5.112;2022-07-23T01:44:03;8.38;;;2.92;;
62030;SDS011;62035;52.094;5.112;2022-07-23T01:46:31;5.10;;;2.60;;
62030;SDS011;62035;52.094;5.112;2022-07-23T01:48:58;8.18;;;3.15;;
62030;SDS011;62035;52.094;5.112;2022-07-23T01:51:26;7.70;;;3.08;;
62030;SDS011;62035;52.094;5.112;2022-07-23T01:53:53;6.10;;;3.53;;
62030;SDS011;62035;52.094;5.112;2022-07-23T01:56:21;4.25;;;2.80;;
62030;SDS011;62035;52.094;5.112;2022-07-23T01:58:50;6.95;;;3.08;;
62030;SDS011;62035;52.094;5.112;2022-07-23T02:01:17;8.32;;;3.00;;
62030;SDS011;62035;52.094;5.112;2022-07-23T02:03:45;4.63;;;2.72;;
62030;SDS011;62035;52.094;5.112;2022-07-23T02:06:12;7.78;;;2.70;;
62030;SDS011;62035;52.094;5.112;2022-07-23T02:08:40;6.50;;;2.88;;
62030;SDS011;62035;52.094;5.112;2022-07-23T02:11:08;6.53;;;3.10;;
62030;SDS011;62035;52.094;5.112;2022-07-23T02:13:35;5.30;;;2.70;;
62030;SDS011;62035;52.094;5.112;2022-07-23T02:16:04;6.90;;;3.05;;
62030;SDS011;62035;52.094;5.112;2022-07-23T02:18:32;9.02;;;3.30;;
62030;SDS011;62035;52.094;5.112;2022-07-23T02:21:00;7.88;;;2.88;;
62030;SDS011;62035;52.094;5.112;2022-07-23T02:23:27;12.82;;;5.05;;
62030;SDS011;62035;52.094;5.112;2022-07-23T02:25:55;6.10;;;3.95;;
62030;SDS011;62035;52.094;5.112;2022-07-23T02:28:22;6.43;;;2.90;;
62030;SDS011;62035;52.094;5.112;2022-07-23T02:30:50;7.43;;;3.40;;
62030;SDS011;62035;52.094;5.112;2022-07-23T02:33:19;8.05;;;2.67;;
62030;SDS011;62035;52.094;5.112;2022-07-23T02:35:47;5.88;;;3.03;;
62030;SDS011;62035;52.094;5.112;2022-07-23T02:38:14;7.88;;;3.30;;
62030;SDS011;62035;52.094;5.112;2022-07-23T02:40:42;7.43;;;3.20;;
62030;SDS011;62035;52.094;5.112;2022-07-23T02:43:09;6.03;;;3.13;;
62030;SDS011;62035;52.094;5.112;2022-07-23T02:45:37;5.18;;;2.67;;
62030;SDS011;62035;52.094;5.112;2022-07-23T02:48:05;6.20;;;2.78;;
62030;SDS011;62035;52.094;5.112;2022-07-23T02:50:34;8.02;;;3.10;;
62030;SDS011;62035;52.094;5.112;2022-07-23T02:53:01;7.95;;;3.10;;
62030;SDS011;62035;52.094;5.112;2022-07-23T02:55:29;5.35;;;2.97;;
62030;SDS011;62035;52.094;5.112;2022-07-23T02:57:57;8.38;;;3.28;;
62030;SDS011;62035;52.094;5.112;2022-07-23T03:00:24;4.45;;;2.72;;
62030;SDS011;62035;52.094;5.112;2022-07-23T03:02:52;6.35;;;2.88;;
62030;SDS011;62035;52.094;5.112;2022-07-23T03:05:19;4.60;;;2.70;;
62030;SDS011;62035;52.094;5.112;2022-07-23T03:07:48;4.50;;;3.00;;
62030;SDS011;62035;52.094;5.112;2022-07-23T03:10:16;10.18;;;3.40;;
62030;SDS011;62035;52.094;5.112;2022-07-23T03:12:43;5.95;;;4.03;;
62030;SDS011;62035;52.094;5.112;2022-07-23T03:15:11;8.02;;;3.92;;
62030;SDS011;62035;52.094;5.112;2022-07-23T03:17:38;7.20;;;3.00;;
62030;SDS011;62035;52.094;5.112;2022-07-23T03:20:07;5.53;;;3.20;;
62030;SDS011;62035;52.094;5.112;2022-07-23T03:22:36;7.22;;;3.03;;
62030;SDS011;62035;52.094;5.112;2022-07-23T03:25:05;7.45;;;2.70;;
62030;SDS011;62035;52.094;5.112;2022-07-23T03:27:35;8.05;;;3.42;;
62030;SDS011;62035;52.094;5.112;2022-07-23T03:30:02;3.80;;;2.67;;
62030;SDS011;62035;52.094;5.112;2022-07-23T03:32:31;6.35;;;2.65;;
62030;SDS011;62035;52.094;5.112;2022-07-23T03:34:58;4.85;;;3.03;;
62030;SDS011;62035;52.094;5.112;2022-07-23T03:37:26;8.07;;;3.33;;
62030;SDS011;62035;52.094;5.112;2022-07-23T03:39:54;8.52;;;3.38;;
62030;SDS011;62035;52.094;5.112;2022-07-23T03:42:23;8.38;;;3.50;;
62030;SDS011;62035;52.094;5.112;2022-07-23T03:44:50;8.18;;;3.00;;
62030;SDS011;62035;52.094;5.112;2022-07-23T03:47:18;6.13;;;2.78;;
62030;SDS011;62035;52.094;5.112;2022-07-23T03:49:47;5.43;;;3.00;;
62030;SDS011;62035;52.094;5.112;2022-07-23T03:52:15;5.95;;;3.05;;
62030;SDS011;62035;52.094;5.112;2022-07-23T03:54:42;7.68;;;2.83;;
62030;SDS011;62035;52.094;5.112;2022-07-23T03:57:10;6.07;;;2.83;;
62030;SDS011;62035;52.094;5.112;2022-07-23T03:59:39;5.07;;;2.70;;
62030;SDS011;62035;52.094;5.112;2022-07-23T04:02:06;5.45;;;2.63;;
62030;SDS011;62035;52.094;5.112;2022-07-23T04:04:34;4.80;;;2.55;;
62030;SDS011;62035;52.094;5.112;2022-07-23T04:07:02;7.53;;;2.72;;
62030;SDS011;62035;52.094;5.112;2022-07-23T04:09:29;4.78;;;2.67;;
62030;SDS011;62035;52.094;5.112;2022-07-23T04:11:57;4.22;;;2.65;;
62030;SDS011;62035;52.094;5.112;2022-07-23T04:14:25;6.60;;;2.53;;
62030;SDS011;62035;52.094;5.112;2022-07-23T04:16:54;5.30;;;2.33;;
62030;SDS011;62035;52.094;5.112;2022-07-23T04:19:21;5.90;;;2.80;;
62030;SDS011;62035;52.094;5.112;2022-07-23T04:21:49;4.25;;;2.40;;
62030;SDS011;62035;52.094;5.112;2022-07-23T04:24:16;6.00;;;2.30;;
62030;SDS011;62035;52.094;5.112;2022-07-23T04:26:44;7.72;;;2.70;;
62030;SDS011;62035;52.094;5.112;2022-07-23T04:29:12;6.68;;;2.67;;
62030;SDS011;62035;52.094;5.112;2022-07-23T04:31:39;8.10;;;2.30;;
62030;SDS011;62035;52.094;5.112;2022-07-23T04:34:08;7.68;;;2.70;;
62030;SDS011;62035;52.094;5.112;2022-07-23T04:36:36;4.85;;;2.53;;
62030;SDS011;62035;52.094;5.112;2022-07-23T04:39:03;3.95;;;2.08;;
62030;SDS011;62035;52.094;5.112;2022-07-23T04:41:31;6.75;;;2.28;;
62030;SDS011;62035;52.094;5.112;2022-07-23T04:44:00;4.40;;;2.25;;
62030;SDS011;62035;52.094;5.112;2022-07-23T04:46:27;3.42;;;2.10;;
62030;SDS011;62035;52.094;5.112;2022-07-23T04:48:55;5.47;;;2.20;;
62030;SDS011;62035;52.094;5.112;2022-07-23T04:51:24;3.88;;;2.20;;
62030;SDS011;62035;52.094;5.112;2022-07-23T04:53:52;4.82;;;2.20;;
62030;SDS011;62035;52.094;5.112;2022-07-23T04:56:19;5.13;;;2.13;;
62030;SDS011;62035;52.094;5.112;2022-07-23T04:58:47;4.68;;;2.05;;
62030;SDS011;62035;52.094;5.112;2022-07-23T05:01:14;4.70;;;2.10;;
62030;SDS011;62035;52.094;5.112;2022-07-23T05:03:42;7.18;;;2.45;;
62030;SDS011;62035;52.094;5.112;2022-07-23T05:06:09;5.03;;;2.22;;
62030;SDS011;62035;52.094;5.112;2022-07-23T05:08:38;5.18;;;2.17;;
62030;SDS011;62035;52.094;5.112;2022-07-23T05:11:06;4.75;;;2.35;;
62030;SDS011;62035;52.094;5.112;2022-07-23T05:13:33;6.30;;;2.42;;
62030;SDS011;62035;52.094;5.112;2022-07-23T05:16:01;3.25;;;1.95;;
62030;SDS011;62035;52.094;5.112;2022-07-23T05:18:28;7.25;;;2.47;;
62030;SDS011;62035;52.094;5.112;2022-07-23T05:20:56;4.20;;;2.08;;
62030;SDS011;62035;52.094;5.112;2022-07-23T05:23:23;8.88;;;2.13;;
62030;SDS011;62035;52.094;5.112;2022-07-23T05:25:52;4.22;;;1.92;;
62030;SDS011;62035;52.094;5.112;2022-07-23T05:28:20;5.00;;;1.50;;
62030;SDS011;62035;52.094;5.112;2022-07-23T05:30:47;4.80;;;1.50;;
62030;SDS011;62035;52.094;5.112;2022-07-23T05:33:16;4.47;;;1.35;;
62030;SDS011;62035;52.094;5.112;2022-07-23T05:35:46;5.97;;;1.60;;
62030;SDS011;62035;52.094;5.112;2022-07-23T05:38:14;5.68;;;2.20;;
62030;SDS011;62035;52.094;5.112;2022-07-23T05:40:41;2.38;;;1.40;;
62030;SDS011;62035;52.094;5.112;2022-07-23T05:43:10;4.53;;;1.35;;
62030;SDS011;62035;52.094;5.112;2022-07-23T05:45:38;4.07;;;1.40;;
62030;SDS011;62035;52.094;5.112;2022-07-23T05:48:05;3.67;;;1.55;;
62030;SDS011;62035;52.094;5.112;2022-07-23T05:50:33;4.53;;;1.52;;
62030;SDS011;62035;52.094;5.112;2022-07-23T05:53:01;4.15;;;1.40;;
62030;SDS011;62035;52.094;5.112;2022-07-23T05:55:29;6.90;;;2.03;;
62030;SDS011;62035;52.094;5.112;2022-07-23T05:57:57;4.45;;;1.50;;
62030;SDS011;62035;52.094;5.112;2022-07-23T06:00:27;3.67;;;1.30;;
62030;SDS011;62035;52.094;5.112;2022-07-23T06:02:55;4.53;;;1.35;;
62030;SDS011;62035;52.094;5.112;2022-07-23T06:05:23;11.32;;;1.45;;
62030;SDS011;62035;52.094;5.112;2022-07-23T06:07:51;6.57;;;1.20;;
62030;SDS011;62035;52.094;5.112;2022-07-23T06:10:20;5.97;;;1.40;;
62030;SDS011;62035;52.094;5.112;2022-07-23T06:12:47;4.03;;;1.35;;
62030;SDS011;62035;52.094;5.112;2022-07-23T06:15:15;4.60;;;1.30;;
62030;SDS011;62035;52.094;5.112;2022-07-23T06:17:44;6.88;;;1.40;;
62030;SDS011;62035;52.094;5.112;2022-07-23T06:20:11;4.25;;;1.52;;
62030;SDS011;62035;52.094;5.112;2022-07-23T06:22:39;6.80;;;1.50;;
62030;SDS011;62035;52.094;5.112;2022-07-23T06:25:07;4.97;;;1.30;;
62030;SDS011;62035;52.094;5.112;2022-07-23T06:27:35;2.65;;;1.30;;
62030;SDS011;62035;52.094;5.112;2022-07-23T06:30:03;5.20;;;1.70;;
62030;SDS011;62035;52.094;5.112;2022-07-23T06:32:34;6.18;;;1.67;;
62030;SDS011;62035;52.094;5.112;2022-07-23T06:35:03;5.50;;;2.30;;
62030;SDS011;62035;52.094;5.112;2022-07-23T06:37:31;6.30;;;1.90;;
62030;SDS011;62035;52.094;5.112;2022-07-23T06:39:59;4.15;;;1.70;;
62030;SDS011;62035;52.094;5.112;2022-07-23T06:42:26;3.97;;;1.48;;
62030;SDS011;62035;52.094;5.112;2022-07-23T06:44:54;5.63;;;1.45;;
62030;SDS011;62035;52.094;5.112;2022-07-23T06:47:21;4.30;;;1.38;;
62030;SDS011;62035;52.094;5.112;2022-07-23T06:49:49;3.45;;;1.52;;
62030;SDS011;62035;52.094;5.112;2022-07-23T06:52:17;3.72;;;1.60;;
62030;SDS011;62035;52.094;5.112;2022-07-23T06:54:45;2.95;;;1.10;;
62030;SDS011;62035;52.094;5.112;2022-07-23T06:57:13;2.88;;;1.27;;
62030;SDS011;62035;52.094;5.112;2022-07-23T06:59:40;3.67;;;1.10;;
62030;SDS011;62035;52.094;5.112;2022-07-23T07:02:08;3.20;;;1.35;;
62030;SDS011;62035;52.094;5.112;2022-07-23T07:04:36;5.00;;;1.30;;
62030;SDS011;62035;52.094;5.112;2022-07-23T07:07:04;2.63;;;1.20;;
62030;SDS011;62035;52.094;5.112;2022-07-23T07:09:33;4.63;;;1.27;;
62030;SDS011;62035;52.094;5.112;2022-07-23T07:12:01;4.28;;;1.30;;
62030;SDS011;62035;52.094;5.112;2022-07-23T07:14:28;3.00;;;1.20;;
62030;SDS011;62035;52.094;5.112;2022-07-23T07:16:56;3.00;;;1.17;;
62030;SDS011;62035;52.094;5.112;2022-07-23T07:19:23;2.95;;;1.10;;
62030;SDS011;62035;52.094;5.112;2022-07-23T07:21:51;3.60;;;1.27;;
62030;SDS011;62035;52.094;5.112;2022-07-23T07:24:19;6.63;;;1.27;;
62030;SDS011;62035;52.094;5.112;2022-07-23T07:26:47;2.38;;;1.10;;
62030;SDS011;62035;52.094;5.112;2022-07-23T07:29:15;2.50;;;1.02;;
62030;SDS011;62035;52.094;5.112;2022-07-23T07:31:43;3.05;;;1.30;;
62030;SDS011;62035;52.094;5.112;2022-07-23T07:34:10;1.88;;;1.10;;
62030;SDS011;62035;52.094;5.112;2022-07-23T07:36:38;4.70;;;1.50;;
62030;SDS011;62035;52.094;5.112;2022-07-23T07:39:05;2.72;;;1.30;;
62030;SDS011;62035;52.094;5.112;2022-07-23T07:41:36;4.07;;;1.27;;
62030;SDS011;62035;52.094;5.112;2022-07-23T07:44:05;3.47;;;1.17;;
62030;SDS011;62035;52.094;5.112;2022-07-23T07:46:32;3.92;;;1.48;;
62030;SDS011;62035;52.094;5.112;2022-07-23T07:49:00;3.25;;;1.17;;
62030;SDS011;62035;52.094;5.112;2022-07-23T07:51:27;2.55;;;1.30;;
62030;SDS011;62035;52.094;5.112;2022-07-23T07:53:55;4.78;;;1.40;;
62030;SDS011;62035;52.094;5.112;2022-07-23T07:56:23;5.20;;;1.40;;
62030;SDS011;62035;52.094;5.112;2022-07-23T07:58:50;6.35;;;1.38;;
62030;SDS011;62035;52.094;5.112;2022-07-23T08:01:19;6.53;;;1.20;;
62030;SDS011;62035;52.094;5.112;2022-07-23T08:03:47;3.03;;;0.98;;
62030;SDS011;62035;52.094;5.112;2022-07-23T08:06:14;2.95;;;1.20;;
62030;SDS011;62035;52.094;5.112;2022-07-23T08:08:42;3.03;;;1.17;;
62030;SDS011;62035;52.094;5.112;2022-07-23T08:11:09;2.92;;;1.17;;
62030;SDS011;62035;52.094;5.112;2022-07-23T08:13:37;5.55;;;1.30;;
62030;SDS011;62035;52.094;5.112;2022-07-23T08:16:05;6.07;;;1.60;;
62030;SDS011;62035;52.094;5.112;2022-07-23T08:18:34;4.00;;;1.23;;
62030;SDS011;62035;52.094;5.112;2022-07-23T08:21:01;3.63;;;1.20;;
62030;SDS011;62035;52.094;5.112;2022-07-23T08:23:31;5.60;;;1.20;;
62030;SDS011;62035;52.094;5.112;2022-07-23T08:25:58;3.60;;;1.10;;
62030;SDS011;62035;52.094;5.112;2022-07-23T08:28:26;3.33;;;1.30;;
62030;SDS011;62035;52.094;5.112;2022-07-23T08:30:54;4.78;;;1.08;;
62030;SDS011;62035;52.094;5.112;2022-07-23T08:33:22;6.35;;;1.27;;
62030;SDS011;62035;52.094;5.112;2022-07-23T08:35:51;3.78;;;1.10;;
62030;SDS011;62035;52.094;5.112;2022-07-23T08:38:20;9.23;;;1.40;;
62030;SDS011;62035;52.094;5.112;2022-07-23T08:40:50;5.50;;;1.15;;
62030;SDS011;62035;52.094;5.112;2022-07-23T08:43:20;3.15;;;1.15;;
62030;SDS011;62035;52.094;5.112;2022-07-23T08:45:50;2.60;;;1.10;;
62030;SDS011;62035;52.094;5.112;2022-07-23T08:48:23;6.63;;;1.42;;
62030;SDS011;62035;52.094;5.112;2022-07-23T08:50:54;2.80;;;1.20;;
62030;SDS011;62035;52.094;5.112;2022-07-23T08:53:25;5.57;;;1.27;;
62030;SDS011;62035;52.094;5.112;2022-07-23T08:55:55;2.92;;;1.20;;
62030;SDS011;62035;52.094;5.112;2022-07-23T08:58:24;2.90;;;1.40;;
62030;SDS011;62035;52.094;5.112;2022-07-23T09:00:53;2.85;;;1.38;;
62030;SDS011;62035;52.094;5.112;2022-07-23T09:03:22;2.20;;;1.10;;
62030;SDS011;62035;52.094;5.112;2022-07-23T09:05:52;2.50;;;1.40;;
62030;SDS011;62035;52.094;5.112;2022-07-23T09:08:23;2.88;;;1.23;;
62030;SDS011;62035;52.094;5.112;2022-07-23T09:10:53;5.28;;;1.40;;
62030;SDS011;62035;52.094;5.112;2022-07-23T09:13:24;6.78;;;1.50;;
62030;SDS011;62035;52.094;5.112;2022-07-23T09:15:55;3.45;;;1.40;;
62030;SDS011;62035;52.094;5.112;2022-07-23T09:18:32;3.08;;;1.20;;
62030;SDS011;62035;52.094;5.112;2022-07-23T09:21:07;3.13;;;1.30;;
62030;SDS011;62035;52.094;5.112;2022-07-23T09:23:44;2.20;;;1.20;;
62030;SDS011;62035;52.094;5.112;2022-07-23T09:28:59;4.07;;;1.40;;
62030;SDS011;62035;52.094;5.112;2022-07-23T09:31:41;53.00;;;7.53;;
62030;SDS011;62035;52.094;5.112;2022-07-23T09:34:14;3.40;;;1.50;;
62030;SDS011;62035;52.094;5.112;2022-07-23T09:36:50;4.35;;;1.17;;
62030;SDS011;62035;52.094;5.112;2022-07-23T09:39:24;4.07;;;1.15;;
62030;SDS011;62035;52.094;5.112;2022-07-23T09:41:56;1.52;;;1.20;;
62030;SDS011;62035;52.094;5.112;2022-07-23T09:44:24;5.50;;;1.40;;
62030;SDS011;62035;52.094;5.112;2022-07-23T09:46:52;5.60;;;1.02;;
62030;SDS011;62035;52.094;5.112;2022-07-23T09:49:27;3.15;;;1.27;;
62030;SDS011;62035;52.094;5.112;2022-07-23T09:51:57;2.53;;;1.02;;
62030;SDS011;62035;52.094;5.112;2022-07-23T09:54:28;2.08;;;1.00;;
62030;SDS011;62035;52.094;5.112;2022-07-23T09:57:00;2.00;;;1.10;;
62030;SDS011;62035;52.094;5.112;2022-07-23T09:59:35;3.92;;;1.10;;
62030;SDS011;62035;52.094;5.112;2022-07-23T10:02:04;1.80;;;1.00;;
62030;SDS011;62035;52.094;5.112;2022-07-23T10:04:35;2.83;;;1.60;;
62030;SDS011;62035;52.094;5.112;2022-07-23T10:07:05;4.30;;;1.45;;
62030;SDS011;62035;52.094;5.112;2022-07-23T10:09:36;2.67;;;1.10;;
62030;SDS011;62035;52.094;5.112;2022-07-23T10:12:09;3.50;;;1.10;;
62030;SDS011;62035;52.094;5.112;2022-07-23T10:14:52;5.63;;;1.30;;
62030;SDS011;62035;52.094;5.112;2022-07-23T10:17:20;2.85;;;1.20;;
62030;SDS011;62035;52.094;5.112;2022-07-23T10:19:48;4.85;;;1.25;;
62030;SDS011;62035;52.094;5.112;2022-07-23T10:22:19;7.40;;;1.27;;
62030;SDS011;62035;52.094;5.112;2022-07-23T10:25:03;2.72;;;1.27;;
62030;SDS011;62035;52.094;5.112;2022-07-23T10:27:48;4.80;;;1.15;;
62030;SDS011;62035;52.094;5.112;2022-07-23T10:30:33;2.35;;;1.00;;
62030;SDS011;62035;52.094;5.112;2022-07-23T10:33:15;5.88;;;1.30;;
62030;SDS011;62035;52.094;5.112;2022-07-23T10:35:58;1.98;;;1.10;;
62030;SDS011;62035;52.094;5.112;2022-07-23T10:38:37;3.10;;;1.45;;
62030;SDS011;62035;52.094;5.112;2022-07-23T10:41:30;3.50;;;1.20;;
62030;SDS011;62035;52.094;5.112;2022-07-23T10:44:06;19.05;;;2.00;;
62030;SDS011;62035;52.094;5.112;2022-07-23T10:46:36;4.65;;;1.20;;
62030;SDS011;62035;52.094;5.112;2022-07-23T10:49:30;8.13;;;1.67;;
62030;SDS011;62035;52.094;5.112;2022-07-23T10:52:16;2.22;;;1.33;;
62030;SDS011;62035;52.094;5.112;2022-07-23T10:54:55;3.15;;;1.00;;
62030;SDS011;62035;52.094;5.112;2022-07-23T10:58:02;17.13;;;2.45;;
62030;SDS011;62035;52.094;5.112;2022-07-23T11:00:32;2.90;;;1.08;;
62030;SDS011;62035;52.094;5.112;2022-07-23T11:03:01;8.02;;;1.27;;
62030;SDS011;62035;52.094;5.112;2022-07-23T11:05:39;3.60;;;1.35;;
62030;SDS011;62035;52.094;5.112;2022-07-23T11:08:13;2.85;;;1.25;;
62030;SDS011;62035;52.094;5.112;2022-07-23T11:10:48;2.45;;;1.10;;
62030;SDS011;62035;52.094;5.112;2022-07-23T11:13:26;3.50;;;1.30;;
62030;SDS011;62035;52.094;5.112;2022-07-23T11:16:07;3.42;;;1.30;;
62030;SDS011;62035;52.094;5.112;2022-07-23T11:18:54;2.45;;;1.33;;
62030;SDS011;62035;52.094;5.112;2022-07-23T11:21:41;3.33;;;1.60;;
62030;SDS011;62035;52.094;5.112;2022-07-23T11:24:13;2.17;;;1.20;;
62030;SDS011;62035;52.094;5.112;2022-07-23T11:26:58;3.08;;;1.35;;
62030;SDS011;62035;52.094;5.112;2022-07-23T11:29:42;5.25;;;1.55;;
62030;SDS011;62035;52.094;5.112;2022-07-23T11:32:18;2.72;;;1.40;;
62030;SDS011;62035;52.094;5.112;2022-07-23T11:34:59;6.03;;;1.63;;
62030;SDS011;62035;52.094;5.112;2022-07-23T11:37:28;3.72;;;1.40;;
62030;SDS011;62035;52.094;5.112;2022-07-23T11:40:03;5.18;;;1.60;;
62030;SDS011;62035;52.094;5.112;2022-07-23T11:42:38;21.42;;;4.07;;
62030;SDS011;62035;52.094;5.112;2022-07-23T11:45:07;31.45;;;4.95;;
62030;SDS011;62035;52.094;5.112;2022-07-23T11:47:35;4.85;;;1.70;;
62030;SDS011;62035;52.094;5.112;2022-07-23T11:50:04;4.25;;;1.90;;
62030;SDS011;62035;52.094;5.112;2022-07-23T11:52:33;7.65;;;2.42;;
62030;SDS011;62035;52.094;5.112;2022-07-23T11:55:02;6.10;;;2.05;;
62030;SDS011;62035;52.094;5.112;2022-07-23T11:57:33;4.45;;;1.50;;
62030;SDS011;62035;52.094;5.112;2022-07-23T12:00:05;4.32;;;1.50;;
62030;SDS011;62035;52.094;5.112;2022-07-23T12:02:37;2.63;;;1.67;;
62030;SDS011;62035;52.094;5.112;2022-07-23T12:05:06;4.07;;;1.98;;
62030;SDS011;62035;52.094;5.112;2022-07-23T12:07:36;5.60;;;1.83;;
62030;SDS011;62035;52.094;5.112;2022-07-23T12:10:10;3.47;;;1.88;;
62030;SDS011;62035;52.094;5.112;2022-07-23T12:12:41;4.20;;;1.75;;
62030;SDS011;62035;52.094;5.112;2022-07-23T12:15:12;5.37;;;2.00;;
62030;SDS011;62035;52.094;5.112;2022-07-23T12:17:44;6.57;;;1.90;;
62030;SDS011;62035;52.094;5.112;2022-07-23T12:20:14;3.90;;;1.73;;
62030;SDS011;62035;52.094;5.112;2022-07-23T12:22:45;3.95;;;1.63;;
62030;SDS011;62035;52.094;5.112;2022-07-23T12:25:16;4.03;;;1.58;;
62030;SDS011;62035;52.094;5.112;2022-07-23T12:27:46;4.32;;;1.98;;
62030;SDS011;62035;52.094;5.112;2022-07-23T12:30:28;3.42;;;1.80;;
62030;SDS011;62035;52.094;5.112;2022-07-23T12:32:59;3.95;;;1.70;;
62030;SDS011;62035;52.094;5.112;2022-07-23T12:35:32;2.60;;;1.50;;
62030;SDS011;62035;52.094;5.112;2022-07-23T12:38:04;4.22;;;1.52;;
62030;SDS011;62035;52.094;5.112;2022-07-23T12:40:37;3.08;;;1.70;;
62030;SDS011;62035;52.094;5.112;2022-07-23T12:43:11;4.72;;;1.77;;
62030;SDS011;62035;52.094;5.112;2022-07-23T12:45:49;5.55;;;1.90;;
62030;SDS011;62035;52.094;5.112;2022-07-23T12:48:20;5.00;;;2.08;;
62030;SDS011;62035;52.094;5.112;2022-07-23T12:50:52;4.72;;;1.77;;
62030;SDS011;62035;52.094;5.112;2022-07-23T12:53:23;4.32;;;1.70;;
62030;SDS011;62035;52.094;5.112;2022-07-23T12:56:00;4.45;;;1.77;;
62030;SDS011;62035;52.094;5.112;2022-07-23T12:58:42;4.18;;;1.85;;
62030;SDS011;62035;52.094;5.112;2022-07-23T13:01:23;2.28;;;1.45;;
62030;SDS011;62035;52.094;5.112;2022-07-23T13:04:00;3.72;;;1.90;;
62030;SDS011;62035;52.094;5.112;2022-07-23T13:06:30;3.03;;;1.83;;
62030;SDS011;62035;52.094;5.112;2022-07-23T13:09:00;3.25;;;1.75;;
62030;SDS011;62035;52.094;5.112;2022-07-23T13:11:30;6.63;;;1.87;;
62030;SDS011;62035;52.094;5.112;2022-07-23T13:13:58;3.67;;;1.60;;
62030;SDS011;62035;52.094;5.112;2022-07-23T13:16:29;3.20;;;1.80;;
62030;SDS011;62035;52.094;5.112;2022-07-23T13:18:59;4.88;;;2.60;;
62030;SDS011;62035;52.094;5.112;2022-07-23T13:21:27;3.30;;;1.95;;
62030;SDS011;62035;52.094;5.112;2022-07-23T13:23:56;5.60;;;2.03;;
62030;SDS011;62035;52.094;5.112;2022-07-23T13:26:24;5.63;;;1.80;;
62030;SDS011;62035;52.094;5.112;2022-07-23T13:28:52;3.22;;;1.60;;
62030;SDS011;62035;52.094;5.112;2022-07-23T13:31:20;2.58;;;1.70;;
62030;SDS011;62035;52.094;5.112;2022-07-23T13:33:50;6.78;;;1.83;;
62030;SDS011;62035;52.094;5.112;2022-07-23T13:36:17;7.13;;;2.28;;
62030;SDS011;62035;52.094;5.112;2022-07-23T13:38:45;2.97;;;1.50;;
62030;SDS011;62035;52.094;5.112;2022-07-23T13:41:12;5.88;;;1.63;;
62030;SDS011;62035;52.094;5.112;2022-07-23T13:43:42;5.43;;;1.70;;
62030;SDS011;62035;52.094;5.112;2022-07-23T13:46:09;4.53;;;1.80;;
62030;SDS011;62035;52.094;5.112;2022-07-23T13:48:37;5.57;;;2.00;;
62030;SDS011;62035;52.094;5.112;2022-07-23T13:51:06;2.72;;;1.60;;
62030;SDS011;62035;52.094;5.112;2022-07-23T13:53:34;6.30;;;2.10;;
62030;SDS011;62035;52.094;5.112;2022-07-23T13:56:02;15.85;;;3.20;;
62030;SDS011;62035;52.094;5.112;2022-07-23T13:58:30;20.15;;;3.08;;
62030;SDS011;62035;52.094;5.112;2022-07-23T14:00:57;18.48;;;2.78;;
62030;SDS011;62035;52.094;5.112;2022-07-23T14:03:25;4.55;;;1.77;;
62030;SDS011;62035;52.094;5.112;2022-07-23T14:05:52;22.83;;;4.43;;
62030;SDS011;62035;52.094;5.112;2022-07-23T14:08:22;12.52;;;2.17;;
62030;SDS011;62035;52.094;5.112;2022-07-23T14:10:49;4.68;;;2.17;;
62030;SDS011;62035;52.094;5.112;2022-07-23T14:13:17;9.80;;;2.10;;
62030;SDS011;62035;52.094;5.112;2022-07-23T14:15:44;4.82;;;2.05;;
62030;SDS011;62035;52.094;5.112;2022-07-23T14:18:12;4.28;;;1.75;;
62030;SDS011;62035;52.094;5.112;2022-07-23T14:20:39;4.10;;;2.00;;
62030;SDS011;62035;52.094;5.112;2022-07-23T14:23:07;4.03;;;1.85;;
62030;SDS011;62035;52.094;5.112;2022-07-23T14:25:36;4.07;;;1.70;;
62030;SDS011;62035;52.094;5.112;2022-07-23T14:28:04;4.95;;;1.70;;
62030;SDS011;62035;52.094;5.112;2022-07-23T14:30:31;3.58;;;1.70;;
62030;SDS011;62035;52.094;5.112;2022-07-23T14:32:59;3.38;;;1.80;;
62030;SDS011;62035;52.094;5.112;2022-07-23T14:35:27;3.38;;;1.70;;
62030;SDS011;62035;52.094;5.112;2022-07-23T14:37:54;3.00;;;1.77;;
62030;SDS011;62035;52.094;5.112;2022-07-23T14:40:22;4.47;;;2.63;;
62030;SDS011;62035;52.094;5.112;2022-07-23T14:42:52;4.18;;;1.83;;
62030;SDS011;62035;52.094;5.112;2022-07-23T14:45:19;3.55;;;1.98;;
62030;SDS011;62035;52.094;5.112;2022-07-23T14:47:47;3.55;;;2.28;;
62030;SDS011;62035;52.094;5.112;2022-07-23T14:50:14;3.65;;;2.20;;
62030;SDS011;62035;52.094;5.112;2022-07-23T14:52:42;5.40;;;2.22;;
62030;SDS011;62035;52.094;5.112;2022-07-23T14:55:10;4.95;;;2.00;;
62030;SDS011;62035;52.094;5.112;2022-07-23T14:57:37;4.05;;;2.15;;
62030;SDS011;62035;52.094;5.112;2022-07-23T15:00:07;4.68;;;2.58;;
62030;SDS011;62035;52.094;5.112;2022-07-23T15:02:36;4.88;;;2.30;;
62030;SDS011;62035;52.094;5.112;2022-07-23T15:05:04;4.68;;;2.10;;
62030;SDS011;62035;52.094;5.112;2022-07-23T15:07:33;6.88;;;2.97;;